KOKK/OKK METAR and TAF weather

Enter ICAO airport designator
Station Type Date Time Source
KOKK METAR 2019/04/23 03:56 UTC NOAA

KOKK 230356Z AUTO 17011KT 10SM BKN080 OVC095 17/11 A2998 RMK AO2 LTG DSNT NE RAE07 SLP151 P0000 T01720106


Station Type Date Time Source
KOKK Decoded METAR 2019/04/23 03:56 UTC NOAA

Kokomo, Kokomo Municipal Airport, IN, United States (KOKK) 40-32N 086-04W
Apr 22, 2019 - 11:56 PM EDT / 2019.04.23 0356 UTC
Wind: from the S (170 degrees) at 13 MPH (11 KT):0
Visibility: 10 mile(s):0
Sky conditions: overcast
Weather: Lightning observed
Precipitation last hour: A trace
Temperature: 63.0 F (17.2 C)
Dew Point: 51.1 F (10.6 C)
Relative Humidity: 65%
Pressure (altimeter): 29.98 in. Hg (1015 hPa)
ob: KOKK 230356Z AUTO 17011KT 10SM BKN080 OVC095 17/11 A2998 RMK AO2 LTG DSNT NE RAE07 SLP151 P0000 T01720106
cycle: 4

Station Type Date Time Source
KOKK TAF UTC NOAA

Error!

Example: see airport list